Aeroporto :
LOGIN :

Iscrizione | Disclaimer

   EN    FR    IT 

 










Sommario :    VFR   VFR Marginale   IFR   IFR Intensivo   IFR Molto Intensivo
Visibilità : 
Base nubi : 
>= 8 km
>= 3000ft
5 / 8 km
1000 / 3000 ft
1500m / 5 km
500 / 1000 ft
800 / 1500m
200 / 500 ft
< 800m
< 200 ft
Simboli :   Temporali  Nebbia  Neve Forte  Precipitazioni Forti  Vento > 20 kt
SIGMETs :   Varie  Temporali  Ghiacco  Turbolenza  Onda orograficha  Ceneri Vulcaniche







- Altitudine del aeroporto : 26 ft
- Codice IATA : BIA
- Carte del aeroporto


LFKB - Bastia

ULTIMO METAR :
  • 220800Z AUTO 01006KT 340V050 CAVOK 28/21 Q1021 NOSIG

METARs OBSOLETI :
  • 220730Z AUTO 03006KT CAVOK 28/19 Q1021 NOSIG
  • 220700Z AUTO VRB03KT CAVOK 27/19 Q1021 NOSIG
  • 220630Z AUTO 20004KT 170V230 CAVOK 26/19 Q1021 BECMG 06010KT
  • 220600Z AUTO 19004KT 160V230 CAVOK 24/19 Q1021 BECMG 06010KT
  • 220530Z AUTO 21004KT CAVOK 23/19 Q1021 BECMG 06010KT
  • 220500Z AUTO 23004KT CAVOK 21/18 Q1021 BECMG 06010KT

TAF TAF LFKB
Valido dal 22 a 03 ore il 23 a 03 ore UTC


220200Z 2203/2303 23003KT CAVOK TX31/2211Z TN20/2204Z
BECMG 2206/2208 06010KT
BECMG 2218/2220 VRB03KT
ATIS : +33 4 95 59 19 40
Nessun NOTAM noto per questo aeroporto.



MetMap, La meteo Aeronautica in un colpo d'occhio ! - Copyright ORBIFLY Dicembre 2007 - Disclaimer

ORBIFLY MET'MAP TEAM :

Programmazione e sviluppo : Alexandra Zaïnal
Concezione e sviluppo : Baudouin d'Aumeries
Co-Programmazione e sviluppo : Marc-Olivier Méhu
Supporto tecnico e logistico : Manuel Goepfert
Aiuto per la traduzione : Arnaldo La Scala

Contatto : metmap@orbifly.com




FONTI E CREDITI :

   NOAA